»·PEaware :: N8872B KDVO-KEUG

N8872B :: KDVO-KEUG

FLIGHT INFORMATION

Flight Status: Arrived
Operator: Privately registered:
United States
More flights under this callsign
Pilot: Chase C. (10526)
Aircraft: CIRRUS SR-22
(SR22)
More flights by this aircraft type
Origin: KDVO Gnoss
United States
Destination: KEUG Mahlon Sweet
United States
More flights between these airports :: More routes between these airports
Route: +
File this flight plan on PilotEdge
Remarks:
Altitude:
(Current/Filed)
16,500ft
Speed:
(Current/Filed)
0kts
Departed: 28-Aug-18 03:13 PM
Arrived: 28-Aug-18 05:23 PM
Distance/Time
Traveled:
360nm/2:10
Distance/Time
To Go:
Arrived

Flight Plot

Page will automatically refresh every two minutes.

Flight plan parsing failed; only flown route is shown


Map Options




Map Legend


Flown Route
Filed Route
Departure Airport
Arrival Airport
Navaid (VOR, NDB)
Fix

Horizontal Profiles

Position Reports

Time Latitude Longitude Heading Altitude Ground
Speed
28-Aug-18 15:13 38.204381 -122.567934 350 2158ft 133kts
28-Aug-18 15:14 38.228578 -122.570541 351 3024ft 136kts
28-Aug-18 15:15 38.254445 -122.573138 351 3950ft 137kts
28-Aug-18 15:16 38.277698 -122.575469 352 4761ft 138kts
28-Aug-18 15:17 38.310755 -122.578792 352 5884ft 141kts
28-Aug-18 15:18 38.344127 -122.582123 353 6989ft 144kts
28-Aug-18 15:19 38.377633 -122.585460 353 8072ft 146kts
28-Aug-18 15:20 38.414185 -122.589098 354 9224ft 149kts
28-Aug-18 15:21 38.449962 -122.592665 354 10324ft 151kts
28-Aug-18 15:22 38.486505 -122.596313 355 11419ft 154kts
28-Aug-18 15:23 38.523079 -122.599947 355 12488ft 156kts
28-Aug-18 15:24 38.562801 -122.603871 354 13621ft 158kts
28-Aug-18 15:25 38.600363 -122.607630 354 14663ft 160kts
28-Aug-18 15:26 38.639620 -122.611575 354 15722ft 162kts
28-Aug-18 15:27 38.678150 -122.615468 354 16521ft 176kts
28-Aug-18 15:28 38.723699 -122.620002 354 16529ft 205kts
28-Aug-18 15:29 38.771846 -122.624807 354 16526ft 212kts
28-Aug-18 15:30 38.823933 -122.630053 354 16525ft 213kts
28-Aug-18 15:31 38.875306 -122.635245 354 16525ft 213kts
28-Aug-18 15:32 38.916901 -122.639491 355 16510ft 214kts
28-Aug-18 15:33 38.965476 -122.644380 355 16508ft 214kts
28-Aug-18 15:34 39.016153 -122.649496 355 16508ft 214kts
28-Aug-18 15:35 39.069815 -122.654948 355 16508ft 214kts
28-Aug-18 15:36 39.121809 -122.660245 355 16507ft 214kts
28-Aug-18 15:37 39.175167 -122.665688 355 16583ft 213kts
28-Aug-18 15:38 39.228749 -122.671166 355 16583ft 214kts
28-Aug-18 15:39 39.282071 -122.676642 355 16583ft 214kts
28-Aug-18 15:40 39.335013 -122.682074 355 16583ft 214kts
28-Aug-18 15:41 39.388364 -122.687550 355 16583ft 214kts
28-Aug-18 15:42 39.441910 -122.693053 355 16583ft 214kts
28-Aug-18 15:43 39.495413 -122.698561 355 16584ft 214kts
28-Aug-18 15:44 39.549183 -122.704105 355 16584ft 214kts
28-Aug-18 15:45 39.602508 -122.709611 355 16584ft 214kts
28-Aug-18 15:46 39.656140 -122.715159 355 16584ft 214kts
28-Aug-18 15:47 39.709983 -122.720735 355 16584ft 214kts
28-Aug-18 15:48 39.763478 -122.726284 355 16584ft 214kts
28-Aug-18 15:49 39.815349 -122.731676 355 16584ft 214kts
28-Aug-18 15:50 39.871479 -122.737520 355 16585ft 214kts
28-Aug-18 15:51 39.925048 -122.743104 355 16585ft 214kts
28-Aug-18 15:52 39.978831 -122.748719 355 16585ft 214kts
28-Aug-18 15:53 40.026934 -122.753748 355 16585ft 215kts
28-Aug-18 15:54 40.079374 -122.759433 358 16511ft 216kts
28-Aug-18 15:55 40.130967 -122.764675 358 16509ft 215kts
28-Aug-18 15:56 40.184038 -122.770224 358 16507ft 215kts
28-Aug-18 15:57 40.236898 -122.775782 358 16498ft 215kts
28-Aug-18 15:58 40.290057 -122.781384 358 16489ft 215kts
28-Aug-18 15:59 40.342497 -122.786921 358 16482ft 215kts
28-Aug-18 16:00 40.395782 -122.792569 358 16482ft 215kts
28-Aug-18 16:01 40.448373 -122.798136 358 16482ft 215kts
28-Aug-18 16:02 40.500951 -122.803712 358 16483ft 215kts
28-Aug-18 16:03 40.555768 -122.809534 358 16483ft 215kts
28-Aug-18 16:04 40.608843 -122.815182 358 16508ft 215kts
28-Aug-18 16:05 40.661565 -122.820793 358 16509ft 215kts
28-Aug-18 16:06 40.713869 -122.826372 358 16509ft 216kts
28-Aug-18 16:07 40.766246 -122.831971 358 16509ft 216kts
28-Aug-18 16:08 40.819082 -122.837626 358 16509ft 216kts
28-Aug-18 16:09 40.873774 -122.843492 358 16500ft 217kts
28-Aug-18 16:10 40.927478 -122.849256 358 16500ft 217kts
28-Aug-18 16:11 40.980664 -122.854892 357 16508ft 217kts
28-Aug-18 16:12 41.034421 -122.860488 354 16543ft 218kts
28-Aug-18 16:13 41.087727 -122.866382 353 16594ft 213kts
28-Aug-18 16:14 41.136378 -122.871809 354 16611ft 209kts
28-Aug-18 16:15 41.186262 -122.877179 353 16600ft 208kts
28-Aug-18 16:16 41.235062 -122.882467 353 16600ft 208kts
28-Aug-18 16:17 41.284870 -122.887875 353 16600ft 208kts
28-Aug-18 16:18 41.335780 -122.893412 353 16600ft 208kts
28-Aug-18 16:19 41.386675 -122.898970 353 16600ft 209kts
28-Aug-18 16:20 41.437974 -122.904544 353 16600ft 209kts
28-Aug-18 16:21 41.490136 -122.910244 353 16600ft 209kts
28-Aug-18 16:22 41.541905 -122.915913 353 16600ft 209kts
28-Aug-18 16:23 41.593526 -122.921574 353 16600ft 209kts
28-Aug-18 16:24 41.643803 -122.927113 353 16615ft 209kts
28-Aug-18 16:25 41.691585 -122.932381 354 16515ft 213kts
28-Aug-18 16:26 41.739459 -122.937635 354 16164ft 209kts
28-Aug-18 16:27 41.787784 -122.942955 354 15633ft 208kts
28-Aug-18 16:28 41.836633 -122.948344 354 14919ft 205kts
28-Aug-18 16:29 41.885416 -122.953736 354 14170ft 203kts
28-Aug-18 16:30 41.932726 -122.958971 354 13434ft 201kts
28-Aug-18 16:31 41.980136 -122.964221 354 12699ft 199kts
28-Aug-18 16:32 42.026503 -122.969399 353 11981ft 197kts
28-Aug-18 16:33 42.072389 -122.974474 354 11278ft 195kts
28-Aug-18 16:34 42.117589 -122.979490 353 10585ft 193kts
28-Aug-18 16:35 42.163643 -122.984622 353 9877ft 191kts
28-Aug-18 16:36 42.208792 -122.989682 353 9185ft 189kts
28-Aug-18 16:37 42.253481 -122.994668 353 8543ft 187kts
28-Aug-18 16:38 42.297489 -122.999635 353 8574ft 190kts
28-Aug-18 16:39 42.343418 -123.004815 353 8610ft 191kts
28-Aug-18 16:40 42.389765 -123.010007 353 8629ft 192kts
28-Aug-18 16:41 42.436565 -123.015282 353 8639ft 192kts
28-Aug-18 16:42 42.484027 -123.020630 353 8645ft 192kts
28-Aug-18 16:43 42.531193 -123.025957 353 8648ft 193kts
28-Aug-18 16:44 42.578272 -123.031281 353 8650ft 193kts
28-Aug-18 16:45 42.625335 -123.036607 353 8652ft 193kts
28-Aug-18 16:46 42.672392 -123.041953 353 8653ft 193kts
28-Aug-18 16:47 42.719348 -123.047280 353 8655ft 193kts
28-Aug-18 16:48 42.766406 -123.052630 353 8659ft 193kts
28-Aug-18 16:49 42.813675 -123.058026 353 8663ft 193kts
28-Aug-18 16:50 42.860516 -123.063324 353 8639ft 194kts
28-Aug-18 16:51 42.908933 -123.069242 356 8631ft 193kts
28-Aug-18 16:52 42.955667 -123.074377 357 8649ft 191kts
28-Aug-18 16:53 43.002044 -123.079589 357 8662ft 188kts
28-Aug-18 16:54 43.047388 -123.084730 356 8666ft 185kts
28-Aug-18 16:55 43.092253 -123.089915 356 8647ft 184kts
28-Aug-18 16:56 43.137927 -123.095184 356 8648ft 184kts
28-Aug-18 16:57 43.182557 -123.100332 356 8648ft 184kts
28-Aug-18 16:58 43.219151 -123.104559 356 8648ft 183kts
28-Aug-18 16:59 43.270356 -123.110480 356 8644ft 183kts
28-Aug-18 17:00 43.313664 -123.115500 356 8643ft 183kts
28-Aug-18 17:01 43.351802 -123.119925 356 8643ft 183kts
28-Aug-18 17:02 43.394490 -123.124886 356 8642ft 183kts
28-Aug-18 17:03 43.437166 -123.129851 356 8642ft 183kts
28-Aug-18 17:04 43.478466 -123.134663 356 8681ft 181kts
28-Aug-18 17:05 43.518798 -123.139393 356 8596ft 174kts
28-Aug-18 17:06 43.553658 -123.143452 356 8201ft 171kts
28-Aug-18 17:07 43.590928 -123.147816 357 7776ft 170kts
28-Aug-18 17:08 43.628764 -123.152243 357 7341ft 169kts
28-Aug-18 17:09 43.666697 -123.156640 357 6899ft 167kts
28-Aug-18 17:10 43.692202 -123.159625 356 6603ft 167kts
28-Aug-18 17:11 43.725230 -123.163522 356 6216ft 167kts
28-Aug-18 17:12 43.766518 -123.168376 356 5656ft 168kts
28-Aug-18 17:13 43.805305 -123.172973 356 5152ft 167kts
28-Aug-18 17:14 43.843339 -123.177423 356 4659ft 165kts
28-Aug-18 17:15 43.880614 -123.181907 355 4178ft 164kts
28-Aug-18 17:16 43.918762 -123.201810 339 3652ft 165kts
28-Aug-18 17:17 43.953412 -123.221363 345 3191ft 162kts
28-Aug-18 17:18 43.989104 -123.218416 8 2737ft 160kts
28-Aug-18 17:19 44.024576 -123.217659 357 2133ft 158kts
28-Aug-18 17:20 44.051599 -123.217989 1 1661ft 99kts
28-Aug-18 17:21 44.073673 -123.218310 0 1242ft 93kts
28-Aug-18 17:22 44.095192 -123.218706 0 788ft 85kts
28-Aug-18 17:23 44.112725 -123.218887 2 403ft 68kts
28-Aug-18 17:24 44.120748 -123.218663 107 377ft 3kts
28-Aug-18 17:25 44.118365 -123.215428 175 377ft 10kts
28-Aug-18 17:26 44.117222 -123.215322 157 377ft 4kts
28-Aug-18 17:27 44.117214 -123.215154 36 377ft 0kts
28-Aug-18 17:28 44.117214 -123.215154 36 377ft 0kts

Navigation Log

Ident Type
Flight plan parsing failed, navigation log unavailable